Terminal Aerodrome Forecast
Issued by NWS

Home | Current Version | Previous Version | Text Only | Print | Product List | Glossary On
Versions: 1 2 3 4 5 6 7 8 9 10 11 12 13
286
FTUS42 KMLB 271732
TAFISM
TAF
KISM 271732Z 2718/2818 VRB04KT P6SM SKC
     FM280000 28004KT P6SM SKC
     FM281000 29006KT P6SM SKC=

USA.gov is the U.S. government's official web portal to all federal, state and local government web resources and services.